Dover, MN

2:21 PM CDT on September 04, 2015 (GMT -0500)
Altura,MN | | Change Station
CLOSE
Current Station
Personal Weather Station
Location: Altura, MN
Elevation: 1165 ft
Nearby Weather Stations

Elev 1165 ft 44.07 °N, 91.94 °W | Updated 4 seconds ago

Clear
Clear
85.6 °F
Feels Like 91 °F
N
6.9
Wind Variable Wind from SSE
Gusts 15.9 mph

Today
High -- | Low -- °F
--% Chance of Precip.
Yesterday
High -- | Low -- °F
Precip. -- in
6:34 AM 7:39 PM
Waning Gibbous, 57% visible
Pressure 29.96 in
Visibility 10.0 miles
Clouds Clear
Heat Index 91 °F
Dew Point 71 °F
Humidity 61%
Rainfall 0.00 in
Snow Depth Not available.
UV 8 out of 12
Pollen 9.30 out of 12
Air Quality Not available.
Flu Activity Not available.
METAR K9MN 041913Z AUTO 11010G14KT 080V140 10SM CLR 30/21 A2996 RMK AO1 T02990214
Pressure 29.96 in
Visibility 10.0 miles
Clouds Clear
Heat Index 91 °F
Dew Point 71 °F
Humidity 61%
Rainfall 0.00 in
Snow Depth Not available.
UV 8 out of 12
Pollen 9.30 out of 12
Air Quality Not available.
Flu Activity Not available.
METAR K9MN 041913Z AUTO 11010G14KT 080V140 10SM CLR 30/21 A2996 RMK AO1 T02990214

10-Day Weather Forecast

×

Almanac

Astronomy

Sep. 04, 2015 Rise Set
Actual Time
Civil Twilight
Nautical Twilight
Astronomical Twilight
Moon
Length of Visible Light
Length of Day
Tomorrow will be .
, % of the Moon is Illuminated

Today's Extremes

State Highs State Lows

Community

WunderPhotos

Upload Photos

1,852,271 photos uploaded!

WunderBlogs® & News

Nearby

Air Quality

  Air Quality AQ Index Pollutant
Not available.

Snow Depth

Station Depth Elevation

Earthquake Activity

City Distance Mag. Time & Date
Minimum magnitude displayed is 2.5.

Coastal Water Temperatures

Place Temperature

Stations

Nearby Weather Stations

Station Location Temp. Windchill Dew Point Humidity Wind Precip. Elev Updated Type